Decoded Metar for WBKW (TAWAU in MALAYSIA) (IATA:TWU) | Meteo·Mobile Aviation Weather
aviador You're here:

WBKW Decoded Metar

TAWAU in MALAYSIA
Report Time2018-08-21 11:00:00
UTC Time2018-08-21 12:11:09
Flight Rules Old
WindCalm
Visibility9999 m
Phenomena:N/A
Clouds:Few 018 Hf
Broken 300 Hf
Expected CloudBase > 1,200 ft AGL from Temp-Dew spread
Ceiling30,000 ft
Temp28°C (ISA +13)
Dew Point25°C (84% RH)
Heat Index32.7°C
QNH1007 hPa
Density Alt2,195 ft
Elevation66 ft
Report Wrong Elevation
Raw Report
METAR WBKW 211100Z 00000KT 9999 FEW018 BKN300 28/25 Q1007=

Extra information for WBKW:More info

Metar Taf Metar & Taf Last 4 Metars F.Rules Stats Wind Profile Meteogram Temp Stats Airport Information Weather charts Add Link Nearby VenuesMetar ALERT Operation Metar Decoded Social comments